createdAt,value
2023-04-17T00:01:31.672Z,91.48
2023-04-17T00:04:03.556Z,91.63
2023-04-17T00:06:35.289Z,91.84
2023-04-17T00:09:06.987Z,91.33
2023-04-17T00:11:38.598Z,91.46
2023-04-17T00:14:09.895Z,91.32
2023-04-17T00:16:41.309Z,91.75
2023-04-17T00:19:12.869Z,91.61
2023-04-17T00:21:44.388Z,91.23
2023-04-17T00:24:15.622Z,91.62
2023-04-17T00:26:46.898Z,91.72
2023-04-17T00:29:18.153Z,91.52
2023-04-17T00:31:49.513Z,91.29
2023-04-17T00:34:20.896Z,91.50
2023-04-17T00:36:52.236Z,91.60
2023-04-17T00:39:23.488Z,91.98
2023-04-17T00:41:54.816Z,91.67
2023-04-17T00:44:26.432Z,91.50
2023-04-17T00:46:57.858Z,91.97
2023-04-17T00:49:29.461Z,91.83
2023-04-17T00:52:01.405Z,91.73
2023-04-17T00:54:33.067Z,92.09
2023-04-17T00:57:04.427Z,91.88
2023-04-17T00:59:37.274Z,92.21
2023-04-17T01:02:08.717Z,91.91
2023-04-17T01:04:40.382Z,92.45
2023-04-17T01:07:11.707Z,91.86
2023-04-17T01:09:43.078Z,91.85
2023-04-17T01:12:22.336Z,92.28
2023-04-17T01:14:55.404Z,92.33
2023-04-17T01:17:27.757Z,92.30
2023-04-17T01:19:59.156Z,92.01
2023-04-17T01:22:30.665Z,92.56
2023-04-17T01:25:02.246Z,91.91
2023-04-17T01:27:35.106Z,91.99
2023-04-17T01:30:07.087Z,92.22
2023-04-17T01:32:38.416Z,92.40
2023-04-17T01:35:10.595Z,92.49
2023-04-17T01:37:41.968Z,92.13
2023-04-17T01:40:13.575Z,92.16
2023-04-17T01:42:44.983Z,92.50
2023-04-17T01:45:16.415Z,92.31
2023-04-17T01:47:47.799Z,92.42
2023-04-17T01:50:19.234Z,92.20
2023-04-17T01:52:50.567Z,92.32
2023-04-17T01:55:21.818Z,92.54
2023-04-17T01:57:53.242Z,92.37
2023-04-17T02:00:24.636Z,92.72
2023-04-17T02:02:56.000Z,92.85
2023-04-17T02:05:27.447Z,92.38
2023-04-17T02:07:58.792Z,92.10
2023-04-17T02:10:30.578Z,92.41
2023-04-17T02:13:01.872Z,92.51
2023-04-17T02:15:33.167Z,92.75
2023-04-17T02:18:08.039Z,92.79
2023-04-17T02:20:39.430Z,92.64
2023-04-17T02:23:10.975Z,92.58
2023-04-17T02:25:42.222Z,92.59
2023-04-17T02:28:13.569Z,92.26
2023-04-17T02:30:45.754Z,92.43
2023-04-17T02:33:17.438Z,93.05
2023-04-17T02:35:48.981Z,92.90
2023-04-17T02:38:20.227Z,92.73
2023-04-17T02:40:51.506Z,92.88
2023-04-17T02:43:22.804Z,92.74
2023-04-17T02:45:54.097Z,92.59
2023-04-17T02:48:25.442Z,92.97
2023-04-17T02:50:56.794Z,92.79
2023-04-17T02:53:28.044Z,92.90
2023-04-17T02:55:59.335Z,92.74
2023-04-17T02:58:30.950Z,92.93
2023-04-17T03:01:03.231Z,92.85
2023-04-17T03:03:34.938Z,92.77
2023-04-17T03:06:08.897Z,92.82
2023-04-17T03:08:40.162Z,92.90
2023-04-17T03:11:11.500Z,92.83
2023-04-17T03:13:43.387Z,92.60
2023-04-17T03:16:14.937Z,92.78
2023-04-17T03:18:46.252Z,93.04
2023-04-17T03:21:17.589Z,92.96
2023-04-17T03:23:48.856Z,92.72
2023-04-17T03:26:20.492Z,92.76
2023-04-17T03:28:51.782Z,93.26
2023-04-17T03:31:24.481Z,93.07
2023-04-17T03:33:55.899Z,93.18
2023-04-17T03:36:28.142Z,93.14
2023-04-17T03:38:59.466Z,93.13
2023-04-17T03:41:30.734Z,92.84
2023-04-17T03:44:02.082Z,92.71
2023-04-17T03:46:33.434Z,93.02
2023-04-17T03:49:05.043Z,93.23
2023-04-17T03:51:36.350Z,93.22
2023-04-17T03:54:07.630Z,92.94
2023-04-17T03:56:38.911Z,93.17
2023-04-17T03:59:10.338Z,93.09
2023-04-17T04:01:43.762Z,93.05
2023-04-17T04:04:16.179Z,93.18
2023-04-17T04:06:49.290Z,92.86
2023-04-17T04:09:21.212Z,92.97
2023-04-17T04:11:53.348Z,93.22
2023-04-17T04:14:24.614Z,93.24
2023-04-17T04:16:56.077Z,92.89
2023-04-17T04:19:27.424Z,92.92
2023-04-17T04:21:58.776Z,93.04
2023-04-17T04:24:30.392Z,93.20
2023-04-17T04:27:04.424Z,93.01
2023-04-17T04:29:37.554Z,93.24
2023-04-17T04:32:09.640Z,93.04
2023-04-17T04:34:42.001Z,92.90
2023-04-17T04:37:15.262Z,93.24
2023-04-17T04:39:47.840Z,92.82
2023-04-17T04:42:22.290Z,92.89
2023-04-17T04:44:53.791Z,92.97
2023-04-17T04:47:25.714Z,92.92
2023-04-17T04:49:57.049Z,92.94
2023-04-17T04:52:28.344Z,92.74
2023-04-17T04:54:59.712Z,92.93
2023-04-17T04:57:31.174Z,93.05
2023-04-17T05:00:06.205Z,93.17
2023-04-17T05:02:37.676Z,93.28
2023-04-17T05:05:10.855Z,93.20
2023-04-17T05:07:42.179Z,93.17
2023-04-17T05:10:13.665Z,93.25
2023-04-17T05:12:44.931Z,93.00
2023-04-17T05:15:16.176Z,93.27
2023-04-17T05:17:47.834Z,93.44
2023-04-17T05:20:19.348Z,93.01
2023-04-17T05:22:50.634Z,93.03
2023-04-17T05:25:22.515Z,93.18
2023-04-17T05:27:53.868Z,93.08
2023-04-17T05:30:25.251Z,93.53
2023-04-17T05:32:56.611Z,93.20
2023-04-17T05:35:28.273Z,93.52
2023-04-17T05:37:59.535Z,93.66
2023-04-17T05:40:30.851Z,93.25
2023-04-17T05:43:09.200Z,93.14
2023-04-17T05:45:41.703Z,93.28
2023-04-17T05:48:13.048Z,93.24
2023-04-17T05:50:44.440Z,93.52
2023-04-17T05:53:15.891Z,92.71
2023-04-17T05:55:47.230Z,93.00
2023-04-17T05:58:23.552Z,92.82
2023-04-17T06:00:56.745Z,92.63
2023-04-17T06:03:28.219Z,92.61
2023-04-17T06:05:59.786Z,92.23
2023-04-17T06:08:31.242Z,92.81
2023-04-17T06:11:02.544Z,92.55
2023-04-17T06:13:33.823Z,92.54
2023-04-17T06:16:05.565Z,91.67
2023-04-17T06:18:36.864Z,91.61
2023-04-17T06:21:08.376Z,91.89
2023-04-17T06:23:39.638Z,91.70
2023-04-17T06:26:12.171Z,91.07
2023-04-17T06:28:43.516Z,90.73
2023-04-17T06:31:14.927Z,91.19
2023-04-17T06:33:47.658Z,90.52
2023-04-17T06:36:18.912Z,90.69
2023-04-17T06:38:50.484Z,90.51
2023-04-17T06:41:22.355Z,90.09
2023-04-17T06:43:53.634Z,89.94
2023-04-17T06:46:25.028Z,89.73
2023-04-17T06:48:59.356Z,89.37
2023-04-17T06:51:30.700Z,89.30
2023-04-17T06:54:02.152Z,89.09
2023-04-17T06:56:33.461Z,88.40
2023-04-17T06:59:04.769Z,87.99
2023-04-17T07:01:37.980Z,87.49
2023-04-17T07:04:10.754Z,86.95
2023-04-17T07:06:42.203Z,86.57
2023-04-17T07:09:13.567Z,85.86
2023-04-17T07:11:44.920Z,85.31
2023-04-17T07:14:16.463Z,84.80
2023-04-17T07:16:47.926Z,84.33
2023-04-17T07:19:19.638Z,83.60
2023-04-17T07:21:50.904Z,83.55
2023-04-17T07:24:22.417Z,83.18
2023-04-17T07:26:53.787Z,82.41
2023-04-17T07:29:25.084Z,82.08
2023-04-17T07:31:56.545Z,81.33
2023-04-17T07:34:31.034Z,81.22
2023-04-17T07:37:02.303Z,80.57
2023-04-17T07:39:33.566Z,79.89
2023-04-17T07:42:07.226Z,79.65
2023-04-17T07:44:39.073Z,79.06
2023-04-17T07:47:10.491Z,78.71
2023-04-17T07:49:41.935Z,78.80
2023-04-17T07:52:15.142Z,78.29
2023-04-17T07:54:46.571Z,78.04
2023-04-17T07:57:18.438Z,77.54
2023-04-17T07:59:49.711Z,77.83
2023-04-17T08:02:22.157Z,77.49
2023-04-17T08:04:55.291Z,76.50
2023-04-17T08:07:27.000Z,76.47
2023-04-17T08:09:58.286Z,76.40
2023-04-17T08:12:29.650Z,75.60
2023-04-17T08:15:00.958Z,74.75
2023-04-17T08:17:33.768Z,74.31
2023-04-17T08:20:11.094Z,73.65
2023-04-17T08:22:44.421Z,72.54
2023-04-17T08:25:16.102Z,72.48
2023-04-17T08:27:47.543Z,71.02
2023-04-17T08:30:20.135Z,71.60
2023-04-17T08:32:52.211Z,71.17
2023-04-17T08:35:23.785Z,70.67
2023-04-17T08:37:58.632Z,70.65
2023-04-17T08:40:30.059Z,69.23
2023-04-17T08:43:02.030Z,69.40
2023-04-17T08:45:37.262Z,68.98
2023-04-17T08:48:08.708Z,68.67
2023-04-17T08:50:42.199Z,68.27
2023-04-17T08:53:13.463Z,69.23
2023-04-17T08:55:46.405Z,68.76
2023-04-17T08:58:17.822Z,69.49
2023-04-17T09:00:49.297Z,68.82
2023-04-17T09:03:21.569Z,69.00
2023-04-17T09:05:57.107Z,68.63
2023-04-17T09:08:29.127Z,68.77
2023-04-17T09:11:00.465Z,69.02
2023-04-17T09:13:40.105Z,68.13
2023-04-17T09:16:13.280Z,68.56
2023-04-17T09:18:46.021Z,68.33
2023-04-17T09:21:18.723Z,68.34
2023-04-17T09:23:50.174Z,67.78
2023-04-17T09:26:23.123Z,67.98
2023-04-17T09:29:04.936Z,66.85
2023-04-17T09:31:38.894Z,67.23
2023-04-17T09:34:13.867Z,67.13
2023-04-17T09:36:45.389Z,67.24
2023-04-17T09:39:20.377Z,66.50
2023-04-17T09:42:03.592Z,65.84
2023-04-17T09:44:36.753Z,65.96
2023-04-17T09:47:09.659Z,65.33
2023-04-17T09:49:55.744Z,65.09
2023-04-17T09:52:28.594Z,65.30
2023-04-17T09:55:06.874Z,65.97
2023-04-17T09:57:38.448Z,65.40
2023-04-17T10:00:14.608Z,64.94
2023-04-17T10:02:49.238Z,64.36
2023-04-17T10:05:22.443Z,64.59
2023-04-17T10:07:53.765Z,64.36
2023-04-17T10:10:33.670Z,63.86
2023-04-17T10:13:11.154Z,64.00
2023-04-17T10:15:46.111Z,63.54
2023-04-17T10:18:24.994Z,63.09
2023-04-17T10:20:57.050Z,62.35
2023-04-17T10:23:33.934Z,61.68
2023-04-17T10:26:26.983Z,60.03
2023-04-17T10:28:58.276Z,61.50
2023-04-17T10:32:13.965Z,59.70
2023-04-17T10:34:46.296Z,60.77
2023-04-17T10:37:18.842Z,60.62
2023-04-17T10:39:56.489Z,60.63
2023-04-17T10:42:32.619Z,60.57
2023-04-17T10:45:17.496Z,59.01
2023-04-17T10:47:58.288Z,58.57
2023-04-17T10:50:29.718Z,59.11
2023-04-17T10:53:01.285Z,59.31
2023-04-17T10:55:32.678Z,58.42
2023-04-17T10:58:12.984Z,56.87
2023-04-17T11:00:52.021Z,54.17
2023-04-17T11:03:23.892Z,56.46
2023-04-17T11:05:55.667Z,55.95
2023-04-17T11:08:26.952Z,56.83
2023-04-17T11:10:58.272Z,56.24
2023-04-17T11:13:33.720Z,55.45
2023-04-17T11:16:05.326Z,56.54
2023-04-17T11:18:37.766Z,56.45
2023-04-17T11:21:13.507Z,56.21
2023-04-17T11:23:52.205Z,54.88
2023-04-17T11:26:23.501Z,57.07
2023-04-17T11:28:54.780Z,56.97
2023-04-17T11:31:26.495Z,56.87
2023-04-17T11:33:58.397Z,57.13
2023-04-17T11:36:29.688Z,56.98
2023-04-17T11:39:01.344Z,56.51
2023-04-17T11:41:39.405Z,57.02
2023-04-17T11:44:14.853Z,56.71
2023-04-17T11:46:53.846Z,55.78
2023-04-17T11:49:26.408Z,56.51
2023-04-17T11:52:01.318Z,57.07
2023-04-17T11:54:37.484Z,56.85
2023-04-17T11:57:13.636Z,57.23
2023-04-17T11:59:46.036Z,57.35
2023-04-17T12:02:17.819Z,57.49
2023-04-17T12:04:49.498Z,57.84
2023-04-17T12:07:23.858Z,56.68
2023-04-17T12:09:58.927Z,56.46
2023-04-17T12:12:31.007Z,55.77
2023-04-17T12:15:03.342Z,56.91
2023-04-17T12:17:34.660Z,56.97
2023-04-17T12:20:06.490Z,56.73
2023-04-17T12:22:37.725Z,57.35
2023-04-17T12:25:09.124Z,56.58
2023-04-17T12:27:40.661Z,56.66
2023-04-17T12:30:12.741Z,56.10
2023-04-17T12:32:48.533Z,55.27
2023-04-17T12:35:21.337Z,54.98
2023-04-17T12:37:52.657Z,54.54
2023-04-17T12:40:25.034Z,54.46
2023-04-17T12:42:56.419Z,52.62
2023-04-17T12:45:28.121Z,52.93
2023-04-17T12:47:59.462Z,52.44
2023-04-17T12:50:31.145Z,52.62
2023-04-17T12:53:02.411Z,52.54
2023-04-17T12:55:33.938Z,51.32
2023-04-17T12:58:09.968Z,50.69
2023-04-17T13:00:44.147Z,51.21
2023-04-17T13:03:15.995Z,49.91
2023-04-17T13:05:53.016Z,50.34
2023-04-17T13:08:24.301Z,49.47
2023-04-17T13:10:56.287Z,49.81
2023-04-17T13:13:27.593Z,49.58
2023-04-17T13:15:58.889Z,49.97
2023-04-17T13:18:30.582Z,49.97
2023-04-17T13:21:01.958Z,49.92
2023-04-17T13:23:33.265Z,50.17
2023-04-17T13:26:04.716Z,49.87
2023-04-17T13:28:35.978Z,49.44
2023-04-17T13:31:07.394Z,49.18
2023-04-17T13:33:40.216Z,49.94
2023-04-17T13:36:11.870Z,49.39
2023-04-17T13:38:43.149Z,49.71
2023-04-17T13:41:14.446Z,50.13
2023-04-17T13:43:45.702Z,49.09
2023-04-17T13:46:17.110Z,50.03
2023-04-17T13:48:48.392Z,48.28
2023-04-17T13:51:19.661Z,49.05
2023-04-17T13:53:51.082Z,48.72
2023-04-17T13:56:23.431Z,49.21
2023-04-17T13:58:55.421Z,48.71
2023-04-17T14:01:26.710Z,48.10
2023-04-17T14:04:00.651Z,48.54
2023-04-17T14:06:33.475Z,47.50
2023-04-17T14:09:05.766Z,46.53
2023-04-17T14:11:37.032Z,47.16
2023-04-17T14:14:08.348Z,47.37
2023-04-17T14:16:40.853Z,47.02
2023-04-17T14:19:14.774Z,46.26
2023-04-17T14:21:46.474Z,46.79
2023-04-17T14:24:17.940Z,46.54
2023-04-17T14:26:49.230Z,46.44
2023-04-17T14:29:21.148Z,45.04
2023-04-17T14:31:53.020Z,46.28
2023-04-17T14:34:24.538Z,46.60
2023-04-17T14:36:58.042Z,45.70
2023-04-17T14:39:31.489Z,45.73
2023-04-17T14:42:03.077Z,45.83
2023-04-17T14:44:34.350Z,45.77
2023-04-17T14:47:05.943Z,44.88
2023-04-17T14:49:37.396Z,45.54
2023-04-17T14:52:08.665Z,46.05
2023-04-17T14:54:40.113Z,45.90
2023-04-17T14:57:11.776Z,46.55
2023-04-17T14:59:44.362Z,46.10
2023-04-17T15:02:15.739Z,46.84
2023-04-17T15:04:48.781Z,46.33
2023-04-17T15:07:20.658Z,47.14
2023-04-17T15:09:51.934Z,47.53
2023-04-17T15:12:23.247Z,47.73
2023-04-17T15:14:56.290Z,47.81
2023-04-17T15:17:27.661Z,48.82
2023-04-17T15:20:00.667Z,49.31
2023-04-17T15:22:32.463Z,49.19
2023-04-17T15:25:04.055Z,49.06
2023-04-17T15:27:35.304Z,49.41
2023-04-17T15:30:08.832Z,49.48
2023-04-17T15:32:41.469Z,49.74
2023-04-17T15:35:12.924Z,50.18
2023-04-17T15:37:44.202Z,50.66
2023-04-17T15:40:16.330Z,49.85
2023-04-17T15:42:47.619Z,50.04
2023-04-17T15:45:18.967Z,50.66
2023-04-17T15:47:50.421Z,50.92
2023-04-17T15:50:21.755Z,50.93
2023-04-17T15:52:53.057Z,51.35
2023-04-17T15:55:24.324Z,51.34
2023-04-17T15:57:55.891Z,51.82
2023-04-17T16:00:27.274Z,52.28
2023-04-17T16:02:58.718Z,52.92
2023-04-17T16:05:30.371Z,53.21
2023-04-17T16:08:01.807Z,53.79
2023-04-17T16:10:34.667Z,54.46
2023-04-17T16:13:05.942Z,54.78
2023-04-17T16:15:37.227Z,55.56
2023-04-17T16:18:08.793Z,55.65
2023-04-17T16:20:40.176Z,56.12
2023-04-17T16:23:11.687Z,56.23
2023-04-17T16:25:42.959Z,56.97
2023-04-17T16:28:14.232Z,57.33
2023-04-17T16:30:45.595Z,57.26
2023-04-17T16:33:16.843Z,57.85
2023-04-17T16:35:48.096Z,57.78
2023-04-17T16:38:19.395Z,58.10
2023-04-17T16:40:53.389Z,58.68
2023-04-17T16:43:26.533Z,58.45
2023-04-17T16:45:58.519Z,58.93
2023-04-17T16:48:31.033Z,58.91
2023-04-17T16:51:04.804Z,59.59
2023-04-17T16:53:36.174Z,59.80
2023-04-17T16:56:07.804Z,59.64
2023-04-17T16:58:39.081Z,59.89
2023-04-17T17:01:10.609Z,59.90
2023-04-17T17:03:43.137Z,60.35
2023-04-17T17:06:14.749Z,60.23
2023-04-17T17:08:46.793Z,60.74
2023-04-17T17:11:19.424Z,60.90
2023-04-17T17:13:53.005Z,61.08
2023-04-17T17:16:24.443Z,61.50
2023-04-17T17:18:56.246Z,61.76
2023-04-17T17:21:28.565Z,61.45
2023-04-17T17:24:00.487Z,61.42
2023-04-17T17:26:31.858Z,61.96
2023-04-17T17:29:03.338Z,61.90
2023-04-17T17:31:34.682Z,61.92
2023-04-17T17:34:22.660Z,61.78
2023-04-17T17:36:58.299Z,61.57
2023-04-17T17:39:29.555Z,61.87
2023-04-17T17:42:02.883Z,62.14
2023-04-17T17:44:35.111Z,62.23
2023-04-17T17:47:07.867Z,61.88
2023-04-17T17:49:39.500Z,62.03
2023-04-17T17:52:10.974Z,62.15
2023-04-17T17:54:42.670Z,62.17
2023-04-17T17:57:13.958Z,62.30
2023-04-17T17:59:45.343Z,62.56
2023-04-17T18:02:16.790Z,62.50
2023-04-17T18:04:48.212Z,62.37
2023-04-17T18:07:19.693Z,62.71
2023-04-17T18:09:51.106Z,62.91
2023-04-17T18:12:22.427Z,62.91
2023-04-17T18:14:53.923Z,62.69
2023-04-17T18:17:25.230Z,62.84
2023-04-17T18:19:56.523Z,62.77
2023-04-17T18:22:27.831Z,62.46
2023-04-17T18:24:59.105Z,62.87
2023-04-17T18:27:30.914Z,62.50
2023-04-17T18:30:06.774Z,60.95
2023-04-17T18:32:38.050Z,61.65
2023-04-17T18:35:09.595Z,61.76
2023-04-17T18:37:43.218Z,61.34
2023-04-17T18:40:14.606Z,61.71
2023-04-17T18:42:45.940Z,61.44
2023-04-17T18:45:17.443Z,61.56
2023-04-17T18:47:48.764Z,61.50
2023-04-17T18:50:20.304Z,61.61
2023-04-17T18:52:51.590Z,61.07
2023-04-17T18:55:22.872Z,62.07
2023-04-17T18:57:54.182Z,61.75
2023-04-17T19:00:25.642Z,61.42
2023-04-17T19:02:57.334Z,62.29
2023-04-17T19:05:28.741Z,62.13
2023-04-17T19:08:00.233Z,61.87
2023-04-17T19:10:31.539Z,61.80
2023-04-17T19:13:05.230Z,62.70
2023-04-17T19:15:36.540Z,62.94
2023-04-17T19:18:08.969Z,62.80
2023-04-17T19:20:42.323Z,62.91
2023-04-17T19:23:14.031Z,63.01
2023-04-17T19:25:50.561Z,62.80
2023-04-17T19:28:25.293Z,63.11
2023-04-17T19:30:57.776Z,63.67
2023-04-17T19:33:29.267Z,63.29
2023-04-17T19:36:03.063Z,63.82
2023-04-17T19:38:34.397Z,63.87
2023-04-17T19:41:11.885Z,63.96
2023-04-17T19:43:51.075Z,64.39
2023-04-17T19:46:24.366Z,63.96
2023-04-17T19:48:55.952Z,64.22
2023-04-17T19:51:32.185Z,64.47
2023-04-17T19:54:03.456Z,65.01
2023-04-17T19:56:34.891Z,64.57
2023-04-17T19:59:06.283Z,64.21
2023-04-17T20:01:37.937Z,64.47
2023-04-17T20:04:09.300Z,64.63
2023-04-17T20:06:40.872Z,64.39
2023-04-17T20:09:14.550Z,64.19
2023-04-17T20:11:46.302Z,64.09
2023-04-17T20:14:19.482Z,64.04
2023-04-17T20:16:51.223Z,64.23
2023-04-17T20:19:23.162Z,64.28
2023-04-17T20:21:54.439Z,64.88
2023-04-17T20:24:25.803Z,64.49
2023-04-17T20:26:58.046Z,64.39
2023-04-17T20:29:30.997Z,64.88
2023-04-17T20:32:03.883Z,64.67
2023-04-17T20:34:35.521Z,64.22
2023-04-17T20:37:06.842Z,64.65
2023-04-17T20:39:39.221Z,65.30
2023-04-17T20:42:10.695Z,65.04
2023-04-17T20:44:41.944Z,65.36
2023-04-17T20:47:13.207Z,65.10
2023-04-17T20:49:44.480Z,65.32
2023-04-17T20:52:15.713Z,65.99
2023-04-17T20:54:47.080Z,65.70
2023-04-17T20:57:18.344Z,66.45
2023-04-17T20:59:49.602Z,66.51
2023-04-17T21:02:21.908Z,66.08
2023-04-17T21:04:53.303Z,66.79
2023-04-17T21:07:24.600Z,67.02
2023-04-17T21:09:55.960Z,67.03
2023-04-17T21:12:27.222Z,66.98
2023-04-17T21:14:58.504Z,67.54
2023-04-17T21:17:29.808Z,67.46
2023-04-17T21:20:01.151Z,68.00
2023-04-17T21:22:32.562Z,67.91
2023-04-17T21:25:04.300Z,68.02
2023-04-17T21:27:35.656Z,68.14
2023-04-17T21:30:08.056Z,68.67
2023-04-17T21:32:40.266Z,68.96
2023-04-17T21:35:11.592Z,68.20
2023-04-17T21:37:42.915Z,69.03
2023-04-17T21:40:14.324Z,68.94
2023-04-17T21:42:45.726Z,68.97
2023-04-17T21:45:17.044Z,69.39
2023-04-17T21:47:48.499Z,69.55
2023-04-17T21:50:19.918Z,69.54
2023-04-17T21:52:51.187Z,70.01
2023-04-17T21:55:22.475Z,69.95
2023-04-17T21:57:53.736Z,69.98
2023-04-17T22:00:25.350Z,70.39
2023-04-17T22:02:56.761Z,70.58
2023-04-17T22:05:32.449Z,70.52
2023-04-17T22:08:03.723Z,71.09
2023-04-17T22:10:35.491Z,71.30
2023-04-17T22:13:06.868Z,71.33
2023-04-17T22:15:38.379Z,71.43
2023-04-17T22:18:09.691Z,71.37
2023-04-17T22:20:41.048Z,71.56
2023-04-17T22:23:12.317Z,71.85
2023-04-17T22:25:43.646Z,72.24
2023-04-17T22:28:14.904Z,72.02
2023-04-17T22:30:49.725Z,71.98
2023-04-17T22:33:21.071Z,71.66
2023-04-17T22:35:52.436Z,71.79
2023-04-17T22:38:23.714Z,71.71
2023-04-17T22:40:55.186Z,72.25
2023-04-17T22:43:26.461Z,71.96
2023-04-17T22:45:57.783Z,72.00
2023-04-17T22:48:29.075Z,71.93
2023-04-17T22:51:01.005Z,72.07
2023-04-17T22:53:33.379Z,72.32
2023-04-17T22:56:05.824Z,72.09
2023-04-17T22:58:37.092Z,71.97
2023-04-17T23:01:08.476Z,71.84
2023-04-17T23:03:39.863Z,72.07
2023-04-17T23:06:11.477Z,72.19
2023-04-17T23:08:42.770Z,72.36
2023-04-17T23:11:14.046Z,71.98
2023-04-17T23:13:45.419Z,72.32
2023-04-17T23:16:17.864Z,72.24
2023-04-17T23:18:49.258Z,72.48
2023-04-17T23:21:20.797Z,72.56
2023-04-17T23:23:52.238Z,72.38
2023-04-17T23:26:23.651Z,72.60
2023-04-17T23:28:54.986Z,72.78
2023-04-17T23:31:26.290Z,72.74
2023-04-17T23:33:57.620Z,72.54
2023-04-17T23:36:28.886Z,72.90
2023-04-17T23:39:00.285Z,73.33
2023-04-17T23:41:33.543Z,73.52
2023-04-17T23:44:05.006Z,73.44
2023-04-17T23:46:36.823Z,73.70
2023-04-17T23:49:08.576Z,74.16
2023-04-17T23:51:39.868Z,74.02
2023-04-17T23:54:11.547Z,74.74
2023-04-17T23:56:45.863Z,74.73
2023-04-17T23:59:17.221Z,74.82
